createdAt,value
2023-03-08T00:01:13.856Z,99194.91
2023-03-08T00:03:17.638Z,99197.38
2023-03-08T00:05:21.353Z,99195.41
2023-03-08T00:07:25.349Z,99190.09
2023-03-08T00:09:29.056Z,99185.56
2023-03-08T00:11:32.674Z,99184.56
2023-03-08T00:13:36.957Z,99180.84
2023-03-08T00:15:41.962Z,99182.53
2023-03-08T00:17:45.616Z,99178.03
2023-03-08T00:19:49.294Z,99170.97
2023-03-08T00:21:52.900Z,99168.19
2023-03-08T00:23:57.455Z,99162.78
2023-03-08T00:26:01.471Z,99156.63
2023-03-08T00:28:05.139Z,99155.72
2023-03-08T00:30:10.571Z,99156.47
2023-03-08T00:32:17.105Z,99147.69
2023-03-08T00:34:21.054Z,99145.84
2023-03-08T00:36:24.827Z,99146.50
2023-03-08T00:38:28.905Z,99135.97
2023-03-08T00:40:32.566Z,99136.63
2023-03-08T00:42:36.253Z,99128.72
2023-03-08T00:44:39.982Z,99124.25
2023-03-08T00:46:43.620Z,99119.75
2023-03-08T00:48:51.286Z,99121.44
2023-03-08T00:50:55.031Z,99120.44
2023-03-08T00:52:58.604Z,99111.66
2023-03-08T00:55:02.076Z,99107.28
2023-03-08T00:57:06.048Z,99105.50
2023-03-08T00:59:09.808Z,99101.13
2023-03-08T01:01:17.088Z,99092.31
2023-03-08T01:03:23.108Z,99078.34
2023-03-08T01:05:28.168Z,99085.25
2023-03-08T01:07:32.108Z,99073.97
2023-03-08T01:09:37.284Z,99071.34
2023-03-08T01:11:41.698Z,99066.03
2023-03-08T01:13:45.537Z,99068.63
2023-03-08T01:15:49.851Z,99066.84
2023-03-08T01:17:53.343Z,99058.00
2023-03-08T01:19:57.152Z,99056.97
2023-03-08T01:22:02.193Z,99056.13
2023-03-08T01:24:06.457Z,99051.75
2023-03-08T01:26:13.530Z,99052.56
2023-03-08T01:28:17.121Z,99053.44
2023-03-08T01:30:22.487Z,99047.34
2023-03-08T01:32:25.976Z,99041.28
2023-03-08T01:34:29.569Z,99036.69
2023-03-08T01:36:33.273Z,99032.31
2023-03-08T01:38:38.904Z,99041.84
2023-03-08T01:40:42.827Z,99035.69
2023-03-08T01:42:46.931Z,99026.91
2023-03-08T01:44:55.713Z,99031.22
2023-03-08T01:47:02.875Z,99018.81
2023-03-08T01:49:29.044Z,99019.53
2023-03-08T01:51:45.203Z,99018.41
2023-03-08T01:53:51.084Z,99014.13
2023-03-08T01:55:56.335Z,99013.19
2023-03-08T01:58:00.257Z,99008.88
2023-03-08T02:00:19.890Z,99008.16
2023-03-08T02:02:30.049Z,99006.47
2023-03-08T02:04:34.570Z,99000.50
2023-03-08T02:06:39.099Z,98996.28
2023-03-08T02:08:43.600Z,98990.19
2023-03-08T02:10:51.138Z,98982.34
2023-03-08T02:12:55.813Z,98986.56
2023-03-08T02:15:00.936Z,98979.47
2023-03-08T02:17:05.563Z,98970.63
2023-03-08T02:19:17.123Z,98977.41
2023-03-08T02:21:24.077Z,98966.94
2023-03-08T02:23:31.610Z,98960.88
2023-03-08T02:25:35.274Z,98958.25
2023-03-08T02:27:38.952Z,98962.56
2023-03-08T02:29:43.015Z,98955.56
2023-03-08T02:31:46.822Z,98951.91
2023-03-08T02:33:50.741Z,98950.22
2023-03-08T02:35:54.611Z,98943.25
2023-03-08T02:37:58.328Z,98948.38
2023-03-08T02:40:04.004Z,98942.22
2023-03-08T02:42:07.922Z,98936.88
2023-03-08T02:44:11.947Z,98931.56
2023-03-08T02:46:16.820Z,98926.22
2023-03-08T02:48:21.177Z,98927.25
2023-03-08T02:50:25.092Z,98914.94
2023-03-08T02:52:28.760Z,98921.28
2023-03-08T02:54:33.045Z,98917.91
2023-03-08T02:56:39.305Z,98905.88
2023-03-08T02:58:45.165Z,98911.19
2023-03-08T03:00:49.343Z,98902.63
2023-03-08T03:02:53.587Z,98898.22
2023-03-08T03:04:57.779Z,98897.41
2023-03-08T03:07:02.577Z,98890.38
2023-03-08T03:09:08.767Z,98895.59
2023-03-08T03:11:14.524Z,98881.59
2023-03-08T03:13:20.869Z,98882.44
2023-03-08T03:15:25.170Z,98874.47
2023-03-08T03:17:33.158Z,98878.88
2023-03-08T03:19:37.086Z,98879.81
2023-03-08T03:21:41.241Z,98872.78
2023-03-08T03:23:45.159Z,98869.25
2023-03-08T03:25:52.747Z,98869.25
2023-03-08T03:27:57.905Z,98858.91
2023-03-08T03:30:08.853Z,98861.50
2023-03-08T03:32:13.423Z,98852.06
2023-03-08T03:34:17.527Z,98848.75
2023-03-08T03:36:24.665Z,98847.06
2023-03-08T03:38:29.414Z,98842.66
2023-03-08T03:40:33.004Z,98837.41
2023-03-08T03:42:39.079Z,98841.63
2023-03-08T03:44:47.565Z,98837.25
2023-03-08T03:46:57.196Z,98833.69
2023-03-08T03:49:02.987Z,98838.91
2023-03-08T03:51:13.746Z,98832.84
2023-03-08T03:53:22.724Z,98832.09
2023-03-08T03:55:30.182Z,98828.66
2023-03-08T03:57:35.404Z,98826.03
2023-03-08T03:59:41.472Z,98826.97
2023-03-08T04:01:46.319Z,98812.97
2023-03-08T04:04:08.716Z,98822.59
2023-03-08T04:06:16.766Z,98816.31
2023-03-08T04:08:21.239Z,98815.69
2023-03-08T04:10:25.841Z,98802.50
2023-03-08T04:12:30.572Z,98806.03
2023-03-08T04:14:34.241Z,98806.16
2023-03-08T04:16:40.982Z,98807.00
2023-03-08T04:18:55.510Z,98800.09
2023-03-08T04:21:02.607Z,98802.59
2023-03-08T04:23:06.486Z,98795.69
2023-03-08T04:25:15.314Z,98793.06
2023-03-08T04:27:24.791Z,98786.25
2023-03-08T04:29:28.456Z,98782.81
2023-03-08T04:31:32.000Z,98783.84
2023-03-08T04:33:38.053Z,98785.63
2023-03-08T04:35:41.977Z,98780.41
2023-03-08T04:37:49.693Z,98774.41
2023-03-08T04:39:55.297Z,98781.44
2023-03-08T04:41:59.587Z,98777.97
2023-03-08T04:44:06.336Z,98772.00
2023-03-08T04:46:18.445Z,98775.44
2023-03-08T04:48:21.732Z,98769.28
2023-03-08T04:50:25.138Z,98778.81
2023-03-08T04:52:32.480Z,98767.50
2023-03-08T04:54:37.515Z,98770.97
2023-03-08T04:56:51.269Z,98770.22
2023-03-08T04:58:55.933Z,98775.44
2023-03-08T05:01:01.140Z,98770.22
2023-03-08T05:03:04.615Z,98764.28
2023-03-08T05:05:08.571Z,98766.03
2023-03-08T05:07:12.031Z,98758.28
2023-03-08T05:09:15.947Z,98756.53
2023-03-08T05:11:23.295Z,98758.28
2023-03-08T05:13:26.885Z,98759.22
2023-03-08T05:15:30.187Z,98748.13
2023-03-08T05:17:33.470Z,98742.91
2023-03-08T05:19:37.700Z,98741.13
2023-03-08T05:21:42.168Z,98730.66
2023-03-08T05:23:46.136Z,98737.47
2023-03-08T05:25:54.802Z,98736.53
2023-03-08T05:27:59.583Z,98732.16
2023-03-08T05:30:02.988Z,98731.94
2023-03-08T05:32:11.885Z,98732.91
2023-03-08T05:34:16.268Z,98731.94
2023-03-08T05:36:23.002Z,98729.44
2023-03-08T05:38:29.257Z,98732.16
2023-03-08T05:40:33.239Z,98724.41
2023-03-08T05:42:37.840Z,98725.34
2023-03-08T05:44:43.128Z,98722.72
2023-03-08T05:46:51.433Z,98720.97
2023-03-08T05:48:55.497Z,98720.09
2023-03-08T05:50:59.092Z,98720.22
2023-03-08T05:53:02.498Z,98714.16
2023-03-08T05:55:07.952Z,98707.25
2023-03-08T05:57:11.691Z,98708.28
2023-03-08T05:59:15.365Z,98707.34
2023-03-08T06:01:22.013Z,98702.22
2023-03-08T06:03:26.296Z,98707.44
2023-03-08T06:05:30.325Z,98711.81
2023-03-08T06:07:34.972Z,98703.25
2023-03-08T06:09:44.300Z,98712.69
2023-03-08T06:11:51.307Z,98708.47
2023-03-08T06:13:54.880Z,98697.81
2023-03-08T06:16:01.393Z,98698.03
2023-03-08T06:18:07.996Z,98691.13
2023-03-08T06:20:12.598Z,98692.81
2023-03-08T06:22:20.172Z,98691.97
2023-03-08T06:24:24.048Z,98692.81
2023-03-08T06:26:27.988Z,98685.06
2023-03-08T06:28:31.950Z,98691.97
2023-03-08T06:30:35.460Z,98695.31
2023-03-08T06:32:40.595Z,98697.19
2023-03-08T06:34:47.195Z,98697.28
2023-03-08T06:36:52.111Z,98695.63
2023-03-08T06:38:56.628Z,98693.00
2023-03-08T06:41:01.115Z,98698.34
2023-03-08T06:43:04.674Z,98694.97
2023-03-08T06:45:10.285Z,98687.22
2023-03-08T06:47:14.010Z,98699.44
2023-03-08T06:49:17.899Z,98689.94
2023-03-08T06:51:23.502Z,98692.66
2023-03-08T06:53:26.990Z,98695.28
2023-03-08T06:55:36.589Z,98686.47
2023-03-08T06:57:39.905Z,98683.03
2023-03-08T06:59:43.110Z,98688.38
2023-03-08T07:01:46.374Z,98679.59
2023-03-08T07:03:50.275Z,98682.38
2023-03-08T07:05:53.522Z,98690.44
2023-03-08T07:07:58.315Z,98687.00
2023-03-08T07:10:01.687Z,98688.66
2023-03-08T07:12:07.780Z,98690.34
2023-03-08T07:14:11.576Z,98689.41
2023-03-08T07:16:15.269Z,98688.56
2023-03-08T07:18:18.611Z,98687.72
2023-03-08T07:20:23.494Z,98686.78
2023-03-08T07:22:26.904Z,98689.41
2023-03-08T07:24:33.914Z,98691.91
2023-03-08T07:26:37.487Z,98695.28
2023-03-08T07:28:40.778Z,98705.53
2023-03-08T07:30:47.975Z,98692.03
2023-03-08T07:32:54.945Z,98700.53
2023-03-08T07:34:59.112Z,98697.00
2023-03-08T07:37:02.732Z,98707.44
2023-03-08T07:39:06.133Z,98703.16
2023-03-08T07:41:11.433Z,98708.28
2023-03-08T07:43:15.908Z,98705.66
2023-03-08T07:45:37.033Z,98708.47
2023-03-08T07:47:41.888Z,98711.81
2023-03-08T07:49:45.936Z,98711.66
2023-03-08T07:51:51.616Z,98721.25
2023-03-08T07:53:56.328Z,98709.84
2023-03-08T07:56:00.766Z,98713.31
2023-03-08T07:58:06.007Z,98707.13
2023-03-08T08:00:11.808Z,98717.50
2023-03-08T08:02:18.971Z,98722.63
2023-03-08T08:04:23.498Z,98718.16
2023-03-08T08:06:27.207Z,98717.94
2023-03-08T08:08:30.947Z,98717.84
2023-03-08T08:10:35.534Z,98716.81
2023-03-08T08:12:39.794Z,98713.97
2023-03-08T08:14:45.640Z,98708.69
2023-03-08T08:16:51.142Z,98712.78
2023-03-08T08:18:55.358Z,98712.34
2023-03-08T08:21:04.898Z,98710.50
2023-03-08T08:23:09.997Z,98711.97
2023-03-08T08:25:13.527Z,98701.28
2023-03-08T08:27:17.181Z,98702.97
2023-03-08T08:29:21.521Z,98700.03
2023-03-08T08:31:31.536Z,98706.31
2023-03-08T08:33:37.340Z,98705.06
2023-03-08T08:35:43.608Z,98704.66
2023-03-08T08:37:49.804Z,98698.28
2023-03-08T08:39:53.937Z,98694.63
2023-03-08T08:41:57.895Z,98694.31
2023-03-08T08:44:01.705Z,98698.59
2023-03-08T08:46:06.750Z,98698.59
2023-03-08T08:48:11.994Z,98688.78
2023-03-08T08:50:15.848Z,98697.13
2023-03-08T08:52:19.393Z,98695.88
2023-03-08T08:54:24.240Z,98688.56
2023-03-08T08:56:30.545Z,98695.91
2023-03-08T08:58:36.882Z,98700.81
2023-03-08T09:00:41.256Z,98688.56
2023-03-08T09:02:45.629Z,98687.72
2023-03-08T09:04:51.485Z,98686.06
2023-03-08T09:06:55.221Z,98674.72
2023-03-08T09:09:00.322Z,98679.84
2023-03-08T09:11:06.123Z,98674.63
2023-03-08T09:13:09.912Z,98664.78
2023-03-08T09:15:13.422Z,98670.13
2023-03-08T09:17:16.800Z,98670.84
2023-03-08T09:19:20.725Z,98669.81
2023-03-08T09:21:27.311Z,98659.66
2023-03-08T09:23:31.139Z,98669.91
2023-03-08T09:25:34.996Z,98661.22
2023-03-08T09:27:40.419Z,98658.09
2023-03-08T09:29:44.095Z,98663.22
2023-03-08T09:31:47.670Z,98664.91
2023-03-08T09:33:54.343Z,98666.59
2023-03-08T09:35:59.406Z,98654.19
2023-03-08T09:38:04.748Z,98657.47
2023-03-08T09:40:15.916Z,98652.09
2023-03-08T09:42:25.396Z,98657.00
2023-03-08T09:44:57.741Z,98651.47
2023-03-08T09:47:04.234Z,98642.22
2023-03-08T09:49:16.895Z,98649.63
2023-03-08T09:51:22.459Z,98642.19
2023-03-08T09:53:31.957Z,98632.84
2023-03-08T09:55:37.833Z,98647.59
2023-03-08T09:57:48.761Z,98651.97
2023-03-08T09:59:56.113Z,98653.44
2023-03-08T10:02:05.217Z,98660.78
2023-03-08T10:04:34.383Z,98646.50
2023-03-08T10:06:45.706Z,98651.34
2023-03-08T10:08:58.822Z,98646.53
2023-03-08T10:11:04.497Z,98655.78
2023-03-08T10:13:30.578Z,98645.06
2023-03-08T10:15:41.995Z,98652.41
2023-03-08T10:17:49.579Z,98663.63
2023-03-08T10:19:58.964Z,98652.41
2023-03-08T10:22:11.078Z,98645.47
2023-03-08T10:24:26.957Z,98652.59
2023-03-08T10:26:30.980Z,98645.22
2023-03-08T10:28:34.770Z,98650.69
2023-03-08T10:30:41.663Z,98642.44
2023-03-08T10:32:47.240Z,98652.41
2023-03-08T10:34:51.257Z,98652.84
2023-03-08T10:36:59.551Z,98655.38
2023-03-08T10:39:11.516Z,98664.78
2023-03-08T10:41:18.469Z,98663.84
2023-03-08T10:43:30.131Z,98657.88
2023-03-08T10:45:34.653Z,98657.75
2023-03-08T10:47:38.313Z,98665.84
2023-03-08T10:49:43.893Z,98662.50
2023-03-08T10:51:58.314Z,98668.47
2023-03-08T10:54:04.220Z,98665.00
2023-03-08T10:56:26.922Z,98668.13
2023-03-08T10:58:35.636Z,98659.72
2023-03-08T11:00:40.950Z,98665.47
2023-03-08T11:02:46.438Z,98677.09
2023-03-08T11:04:55.032Z,98671.56
2023-03-08T11:06:59.253Z,98669.44
2023-03-08T11:09:05.450Z,98671.59
2023-03-08T11:11:11.740Z,98665.19
2023-03-08T11:13:25.419Z,98659.72
2023-03-08T11:15:32.083Z,98668.22
2023-03-08T11:17:39.622Z,98662.19
2023-03-08T11:20:00.381Z,98652.03
2023-03-08T11:22:15.592Z,98658.09
2023-03-08T11:24:29.565Z,98652.03
2023-03-08T11:26:40.824Z,98652.63
2023-03-08T11:29:13.165Z,98648.56
2023-03-08T11:31:29.491Z,98647.50
2023-03-08T11:34:04.797Z,98642.66
2023-03-08T11:36:14.799Z,98647.28
2023-03-08T11:38:23.948Z,98649.31
2023-03-08T11:40:30.715Z,98647.75
2023-03-08T11:42:50.096Z,98647.47
2023-03-08T11:45:08.859Z,98645.00
2023-03-08T11:47:48.447Z,98644.44
2023-03-08T11:50:06.607Z,98640.13
2023-03-08T11:52:24.985Z,98648.13
2023-03-08T11:54:46.600Z,98643.59
2023-03-08T11:56:56.776Z,98642.53
2023-03-08T11:59:07.037Z,98649.09
2023-03-08T12:01:20.612Z,98655.09
2023-03-08T12:03:29.557Z,98649.59
2023-03-08T12:05:38.695Z,98644.78
2023-03-08T12:07:47.801Z,98643.97
2023-03-08T12:10:00.788Z,98645.97
2023-03-08T12:12:11.424Z,98630.75
2023-03-08T12:14:20.403Z,98639.09
2023-03-08T12:16:28.059Z,98646.31
2023-03-08T12:18:39.247Z,98636.06
2023-03-08T12:20:46.506Z,98643.16
2023-03-08T12:22:58.990Z,98637.66
2023-03-08T12:25:09.488Z,98639.34
2023-03-08T12:27:20.790Z,98632.78
2023-03-08T12:29:28.085Z,98625.84
2023-03-08T12:31:38.743Z,98628.47
2023-03-08T12:33:42.552Z,98620.25
2023-03-08T12:35:55.043Z,98620.72
2023-03-08T12:38:01.454Z,98606.56
2023-03-08T12:40:11.541Z,98618.56
2023-03-08T12:42:17.811Z,98613.38
2023-03-08T12:44:26.457Z,98609.84
2023-03-08T12:46:30.795Z,98594.09
2023-03-08T12:48:39.756Z,98606.34
2023-03-08T12:50:49.066Z,98602.91
2023-03-08T12:52:53.408Z,98620.06
2023-03-08T12:54:59.390Z,98616.44
2023-03-08T12:57:15.555Z,98614.31
2023-03-08T12:59:34.507Z,98617.13
2023-03-08T13:01:40.875Z,98621.44
2023-03-08T13:03:46.074Z,98625.38
2023-03-08T13:05:50.474Z,98620.75
2023-03-08T13:08:16.878Z,98617.41
2023-03-08T13:10:23.599Z,98608.59
2023-03-08T13:12:38.491Z,98620.25
2023-03-08T13:14:44.903Z,98611.69
2023-03-08T13:16:48.440Z,98618.81
2023-03-08T13:19:04.724Z,98608.44
2023-03-08T13:21:27.548Z,98614.50
2023-03-08T13:23:38.264Z,98617.75
2023-03-08T13:25:57.127Z,98615.25
2023-03-08T13:28:07.460Z,98617.63
2023-03-08T13:30:23.831Z,98600.50
2023-03-08T13:32:27.728Z,98604.53
2023-03-08T13:34:35.355Z,98599.88
2023-03-08T13:36:39.249Z,98595.34
2023-03-08T13:38:43.152Z,98604.06
2023-03-08T13:40:52.973Z,98603.34
2023-03-08T13:42:58.616Z,98595.13
2023-03-08T13:45:11.594Z,98599.16
2023-03-08T13:47:22.715Z,98605.47
2023-03-08T13:49:28.941Z,98602.25
2023-03-08T13:51:35.295Z,98605.00
2023-03-08T13:53:41.248Z,98600.94
2023-03-08T13:55:47.362Z,98605.69
2023-03-08T13:57:54.083Z,98603.31
2023-03-08T14:00:01.178Z,98597.81
2023-03-08T14:02:20.737Z,98592.44
2023-03-08T14:04:26.421Z,98597.31
2023-03-08T14:06:35.784Z,98568.59
2023-03-08T14:08:41.045Z,98587.88
2023-03-08T14:10:46.840Z,98585.41
2023-03-08T14:12:50.734Z,98583.16
2023-03-08T14:14:58.731Z,98577.91
2023-03-08T14:17:03.181Z,98583.41
2023-03-08T14:19:22.995Z,98576.59
2023-03-08T14:21:28.539Z,98568.34
2023-03-08T14:23:38.505Z,98579.19
2023-03-08T14:25:42.268Z,98562.97
2023-03-08T14:27:46.094Z,98569.88
2023-03-08T14:29:50.226Z,98562.50
2023-03-08T14:32:13.325Z,98571.94
2023-03-08T14:34:22.720Z,98567.63
2023-03-08T14:36:26.921Z,98570.38
2023-03-08T14:38:34.299Z,98579.06
2023-03-08T14:40:39.598Z,98570.94
2023-03-08T14:42:45.908Z,98560.81
2023-03-08T14:44:55.479Z,98576.84
2023-03-08T14:47:09.773Z,98584.59
2023-03-08T14:49:23.392Z,98571.22
2023-03-08T14:51:31.417Z,98582.44
2023-03-08T14:53:38.577Z,98580.66
2023-03-08T14:55:43.114Z,98589.03
2023-03-08T14:57:46.811Z,98575.41
2023-03-08T14:59:51.314Z,98573.13
2023-03-08T15:01:56.265Z,98584.06
2023-03-08T15:04:00.835Z,98577.44
2023-03-08T15:06:12.620Z,98586.00
2023-03-08T15:08:16.976Z,98583.63
2023-03-08T15:10:30.612Z,98580.06
2023-03-08T15:12:34.434Z,98581.94
2023-03-08T15:14:38.065Z,98590.75
2023-03-08T15:16:41.637Z,98582.19
2023-03-08T15:18:45.400Z,98578.69
2023-03-08T15:20:51.663Z,98587.06
2023-03-08T15:23:00.878Z,98581.59
2023-03-08T15:25:05.711Z,98582.44
2023-03-08T15:27:14.960Z,98584.69
2023-03-08T15:29:27.752Z,98589.09
2023-03-08T15:31:32.294Z,98585.47
2023-03-08T15:33:35.926Z,98582.91
2023-03-08T15:35:43.023Z,98581.06
2023-03-08T15:37:47.096Z,98583.97
2023-03-08T15:39:50.761Z,98585.00
2023-03-08T15:41:55.127Z,98590.66
2023-03-08T15:44:00.121Z,98579.59
2023-03-08T15:46:03.698Z,98578.78
2023-03-08T15:48:09.408Z,98586.34
2023-03-08T15:50:17.555Z,98585.41
2023-03-08T15:52:23.333Z,98579.97
2023-03-08T15:54:28.905Z,98577.88
2023-03-08T15:56:32.823Z,98585.31
2023-03-08T15:58:36.332Z,98580.09
2023-03-08T16:00:41.409Z,98574.84
2023-03-08T16:02:45.229Z,98574.84
2023-03-08T16:04:49.530Z,98581.47
2023-03-08T16:06:53.420Z,98566.00
2023-03-08T16:08:58.331Z,98570.28
2023-03-08T16:11:04.205Z,98584.53
2023-03-08T16:13:08.420Z,98575.31
2023-03-08T16:15:13.038Z,98573.66
2023-03-08T16:17:19.081Z,98573.25
2023-03-08T16:19:22.885Z,98578.66
2023-03-08T16:21:27.311Z,98587.47
2023-03-08T16:23:31.044Z,98592.59
2023-03-08T16:25:34.824Z,98591.03
2023-03-08T16:27:38.516Z,98597.53
2023-03-08T16:29:42.555Z,98588.31
2023-03-08T16:31:46.176Z,98597.19
2023-03-08T16:33:51.301Z,98594.38
2023-03-08T16:35:55.538Z,98597.94
2023-03-08T16:37:59.196Z,98586.22
2023-03-08T16:40:05.126Z,98597.28
2023-03-08T16:42:12.894Z,98593.00
2023-03-08T16:44:21.726Z,98590.28
2023-03-08T16:46:25.619Z,98599.38
2023-03-08T16:48:31.666Z,98591.00
2023-03-08T16:50:37.153Z,98597.38
2023-03-08T16:52:41.122Z,98598.28
2023-03-08T16:54:45.203Z,98593.81
2023-03-08T16:56:48.881Z,98587.84
2023-03-08T16:58:53.109Z,98606.06
2023-03-08T17:00:56.688Z,98605.97
2023-03-08T17:03:00.357Z,98592.88
2023-03-08T17:05:05.066Z,98613.78
2023-03-08T17:07:11.060Z,98610.44
2023-03-08T17:09:15.107Z,98609.50
2023-03-08T17:11:19.732Z,98612.94
2023-03-08T17:13:23.440Z,98614.84
2023-03-08T17:15:27.114Z,98612.31
2023-03-08T17:17:30.630Z,98612.44
2023-03-08T17:19:34.399Z,98618.38
2023-03-08T17:21:39.121Z,98618.38
2023-03-08T17:23:44.156Z,98617.34
2023-03-08T17:25:47.976Z,98616.41
2023-03-08T17:27:53.396Z,98613.97
2023-03-08T17:29:58.657Z,98620.06
2023-03-08T17:32:02.489Z,98636.34
2023-03-08T17:34:06.875Z,98620.28
2023-03-08T17:36:13.017Z,98624.59
2023-03-08T17:38:17.007Z,98619.25
2023-03-08T17:40:24.017Z,98615.88
2023-03-08T17:42:27.708Z,98624.69
2023-03-08T17:44:31.652Z,98620.28
2023-03-08T17:46:36.006Z,98627.19
2023-03-08T17:48:39.877Z,98622.69
2023-03-08T17:50:43.440Z,98628.66
2023-03-08T17:52:47.340Z,98625.94
2023-03-08T17:54:51.288Z,98629.28
2023-03-08T17:56:56.605Z,98629.28
2023-03-08T17:59:01.216Z,98630.31
2023-03-08T18:01:12.828Z,98641.53
2023-03-08T18:03:16.418Z,98632.75
2023-03-08T18:05:20.594Z,98640.78
2023-03-08T18:07:28.333Z,98636.50
2023-03-08T18:09:32.783Z,98636.78
2023-03-08T18:11:38.300Z,98632.31
2023-03-08T18:13:43.909Z,98645.59
2023-03-08T18:15:47.545Z,98642.88
2023-03-08T18:17:51.329Z,98642.03
2023-03-08T18:19:55.134Z,98635.16
2023-03-08T18:21:59.569Z,98638.78
2023-03-08T18:24:05.690Z,98648.50
2023-03-08T18:26:10.665Z,98639.06
2023-03-08T18:28:15.605Z,98639.94
2023-03-08T18:30:22.315Z,98635.53
2023-03-08T18:32:28.264Z,98649.44
2023-03-08T18:34:32.109Z,98648.41
2023-03-08T18:36:36.344Z,98650.19
2023-03-08T18:38:40.111Z,98653.53
2023-03-08T18:40:43.784Z,98646.63
2023-03-08T18:42:47.356Z,98645.69
2023-03-08T18:44:51.596Z,98655.41
2023-03-08T18:46:57.096Z,98651.00
2023-03-08T18:49:03.220Z,98650.19
2023-03-08T18:51:07.812Z,98661.78
2023-03-08T18:53:12.814Z,98663.63
2023-03-08T18:55:16.834Z,98662.72
2023-03-08T18:57:21.007Z,98673.38
2023-03-08T18:59:24.938Z,98678.59
2023-03-08T19:01:30.645Z,98668.16
2023-03-08T19:03:35.865Z,98676.09
2023-03-08T19:05:39.665Z,98676.91
2023-03-08T19:07:43.562Z,98681.22
2023-03-08T19:09:47.339Z,98675.06
2023-03-08T19:11:51.197Z,98668.16
2023-03-08T19:13:55.031Z,98682.91
2023-03-08T19:15:58.693Z,98687.16
2023-03-08T19:18:02.458Z,98681.75
2023-03-08T19:20:08.935Z,98684.38
2023-03-08T19:22:12.702Z,98690.75
2023-03-08T19:24:18.248Z,98692.81
2023-03-08T19:26:38.805Z,98693.00
2023-03-08T19:28:42.567Z,98698.63
2023-03-08T19:30:46.349Z,98705.81
2023-03-08T19:32:50.273Z,98710.41
2023-03-08T19:34:53.910Z,98699.31
2023-03-08T19:36:59.587Z,98704.53
2023-03-08T19:39:04.189Z,98715.91
2023-03-08T19:41:10.150Z,98722.00
2023-03-08T19:43:14.006Z,98706.31
2023-03-08T19:45:17.692Z,98700.16
2023-03-08T19:47:22.124Z,98709.66
2023-03-08T19:49:29.918Z,98718.97
2023-03-08T19:51:34.404Z,98702.38
2023-03-08T19:53:40.409Z,98712.59
2023-03-08T19:55:50.684Z,98708.88
2023-03-08T19:57:54.601Z,98707.84
2023-03-08T19:59:59.754Z,98712.88
2023-03-08T20:02:03.397Z,98711.81
2023-03-08T20:04:08.737Z,98716.03
2023-03-08T20:06:12.700Z,98711.44
2023-03-08T20:08:16.577Z,98719.94
2023-03-08T20:10:23.518Z,98724.97
2023-03-08T20:12:27.337Z,98720.44
2023-03-08T20:14:31.123Z,98721.31
2023-03-08T20:16:35.297Z,98717.66
2023-03-08T20:18:39.372Z,98718.38
2023-03-08T20:20:45.052Z,98720.78
2023-03-08T20:22:48.959Z,98727.81
2023-03-08T20:24:52.960Z,98728.56
2023-03-08T20:26:59.622Z,98735.44
2023-03-08T20:29:04.044Z,98740.06
2023-03-08T20:31:13.084Z,98743.88
2023-03-08T20:33:17.592Z,98747.63
2023-03-08T20:35:23.984Z,98742.72
2023-03-08T20:37:28.304Z,98761.94
2023-03-08T20:39:32.046Z,98758.69
2023-03-08T20:41:36.113Z,98765.78
2023-03-08T20:43:42.454Z,98767.84
2023-03-08T20:45:46.305Z,98777.47
2023-03-08T20:47:50.258Z,98773.28
2023-03-08T20:49:54.372Z,98774.13
2023-03-08T20:51:58.800Z,98770.66
2023-03-08T20:54:03.562Z,98760.97
2023-03-08T20:56:10.006Z,98763.47
2023-03-08T20:58:14.824Z,98758.03
2023-03-08T21:00:21.174Z,98758.03
2023-03-08T21:02:29.890Z,98766.53
2023-03-08T21:04:33.928Z,98767.25
2023-03-08T21:06:38.368Z,98766.22
2023-03-08T21:08:43.366Z,98773.16
2023-03-08T21:10:47.534Z,98765.19
2023-03-08T21:12:51.334Z,98764.16
2023-03-08T21:14:56.706Z,98764.06
2023-03-08T21:17:02.329Z,98770.88
2023-03-08T21:19:07.144Z,98770.03
2023-03-08T21:21:19.217Z,98769.94
2023-03-08T21:23:24.459Z,98777.03
2023-03-08T21:25:28.344Z,98769.19
2023-03-08T21:27:33.072Z,98769.19
2023-03-08T21:29:37.499Z,98776.22
2023-03-08T21:31:44.694Z,98779.00
2023-03-08T21:33:50.801Z,98787.97
2023-03-08T21:35:58.637Z,98779.59
2023-03-08T21:38:03.313Z,98784.19
2023-03-08T21:40:10.642Z,98786.78
2023-03-08T21:42:14.861Z,98785.22
2023-03-08T21:44:21.450Z,98786.13
2023-03-08T21:46:26.999Z,98783.53
2023-03-08T21:48:30.526Z,98786.22
2023-03-08T21:50:36.139Z,98788.75
2023-03-08T21:52:40.089Z,98786.06
2023-03-08T21:54:44.111Z,98793.16
2023-03-08T21:56:48.636Z,98798.47
2023-03-08T21:58:53.308Z,98791.56
2023-03-08T22:00:57.489Z,98790.63
2023-03-08T22:03:01.723Z,98798.47
2023-03-08T22:05:07.328Z,98795.88
2023-03-08T22:07:12.533Z,98796.69
2023-03-08T22:09:15.877Z,98799.31
2023-03-08T22:11:21.213Z,98801.09
2023-03-08T22:13:25.242Z,98811.53
2023-03-08T22:15:29.097Z,98809.03
2023-03-08T22:17:32.829Z,98810.06
2023-03-08T22:19:36.397Z,98818.00
2023-03-08T22:21:40.238Z,98809.41
2023-03-08T22:23:46.013Z,98805.03
2023-03-08T22:25:50.057Z,98802.31
2023-03-08T22:27:54.000Z,98809.19
2023-03-08T22:29:57.958Z,98806.50
2023-03-08T22:32:01.925Z,98809.84
2023-03-08T22:34:06.909Z,98807.13
2023-03-08T22:36:12.562Z,98804.34
2023-03-08T22:38:18.716Z,98801.53
2023-03-08T22:40:24.046Z,98795.28
2023-03-08T22:42:27.345Z,98798.00
2023-03-08T22:44:31.131Z,98802.69
2023-03-08T22:46:34.841Z,98805.56
2023-03-08T22:48:38.505Z,98795.50
2023-03-08T22:50:42.406Z,98799.25
2023-03-08T22:52:46.425Z,98802.06
2023-03-08T22:54:50.284Z,98800.38
2023-03-08T22:56:56.745Z,98797.00
2023-03-08T22:59:01.106Z,98796.06
2023-03-08T23:01:04.994Z,98800.38
2023-03-08T23:03:08.732Z,98792.44
2023-03-08T23:05:13.751Z,98811.53
2023-03-08T23:07:17.553Z,98808.00
2023-03-08T23:09:22.445Z,98801.84
2023-03-08T23:11:26.258Z,98797.47
2023-03-08T23:13:34.265Z,98798.13
2023-03-08T23:15:38.588Z,98793.63
2023-03-08T23:17:42.464Z,98797.81
2023-03-08T23:19:46.287Z,98805.50
2023-03-08T23:21:50.423Z,98807.81
2023-03-08T23:23:54.448Z,98812.81
2023-03-08T23:25:58.248Z,98810.13
2023-03-08T23:28:02.191Z,98815.25
2023-03-08T23:30:09.372Z,98820.31
2023-03-08T23:32:13.032Z,98816.81
2023-03-08T23:34:16.840Z,98820.31
2023-03-08T23:36:23.086Z,98810.66
2023-03-08T23:38:26.831Z,98819.28
2023-03-08T23:40:30.426Z,98810.56
2023-03-08T23:42:35.033Z,98811.44
2023-03-08T23:44:39.618Z,98817.47
2023-03-08T23:46:46.408Z,98813.94
2023-03-08T23:48:50.396Z,98814.66
2023-03-08T23:50:54.184Z,98819.69
2023-03-08T23:52:57.830Z,98820.56
2023-03-08T23:55:01.616Z,98825.56
2023-03-08T23:57:05.942Z,98823.78
2023-03-08T23:59:13.215Z,98833.31
